Time;durP1;ratioP1;P1;durP2;ratioP2;P2;SDS_P1;SDS_P2;PMS_P1;PMS_P2;Temp;Humidity;BMP_temperature;BMP_pressure;BME280_temperature;BME280_humidity;BME280_pressure;Samples;Min_cycle;Max_cycle;Signal;HPM_P1;HPM_P2
2022/06/11 00:02:03;;;;;;;3.37;1.77;;;;;;;15.85;78.11;101100.00;3679020;78;98786;-84
2022/06/11 00:07:12;;;;;;;6.97;2.50;;;;;;;15.90;79.93;101090.48;3659245;79;98900;-84
2022/06/11 00:12:14;;;;;;;5.75;2.10;;;;;;;15.92;81.41;101089.51;3658834;79;99296;-84
2022/06/11 00:17:20;;;;;;;5.78;2.10;;;;;;;15.91;82.30;101086.54;3637154;80;99188;-84
2022/06/11 00:22:22;;;;;;;3.70;1.83;;;;;;;15.89;83.17;101091.09;3657128;79;98776;-84
2022/06/11 00:27:23;;;;;;;3.23;2.10;;;;;;;15.86;83.40;101088.33;3646146;79;98988;-85
2022/06/11 00:32:24;;;;;;;5.60;2.40;;;;;;;15.80;83.62;101092.69;3644854;79;33486;-84
2022/06/11 00:37:25;;;;;;;4.13;2.10;;;;;;;15.71;84.29;101088.11;3621247;79;99172;-85
2022/06/11 00:42:32;;;;;;;7.93;2.70;;;;;;;15.65;84.94;101097.41;3649258;79;98999;-85
2022/06/11 00:47:34;;;;;;;8.03;2.60;;;;;;;15.62;85.59;101098.80;3633500;80;99344;-85
2022/06/11 00:52:42;;;;;;;4.93;2.27;;;;;;;15.56;85.81;101091.47;3644672;79;98847;-84
2022/06/11 00:57:48;;;;;;;7.10;3.30;;;;;;;15.50;86.58;101094.44;3651129;79;98820;-84
2022/06/11 01:02:50;;;;;;;6.17;3.37;;;;;;;15.41;86.58;101091.23;3641837;79;26181;-85
2022/06/11 01:08:05;;;;;;;5.05;2.87;;;;;;;15.34;86.96;101096.78;3636801;79;99073;-84
2022/06/11 01:13:56;;;;;;;5.50;2.65;;;;;;;15.30;87.46;101099.29;3641741;79;99036;-84
2022/06/11 01:19:02;;;;;;;5.03;2.62;;;;;;;15.21;87.42;101086.41;3637604;79;99090;-84
2022/06/11 01:24:36;;;;;;;5.33;2.90;;;;;;;15.14;88.22;101091.91;3647264;79;99267;-84
2022/06/11 01:30:04;;;;;;;3.98;2.52;;;;;;;15.07;88.32;101100.22;3617052;79;98723;-85
2022/06/11 01:35:50;;;;;;;6.45;2.77;;;;;;;15.00;88.96;101097.42;3650158;80;98768;-84
2022/06/11 01:41:36;;;;;;;6.83;3.40;;;;;;;14.92;88.95;101095.80;3640835;79;99179;-85
2022/06/11 01:46:42;;;;;;;7.03;3.05;;;;;;;14.84;89.39;101102.50;3647176;79;99092;-84
2022/06/11 01:52:01;;;;;;;5.97;3.02;;;;;;;14.78;89.66;101096.53;3648456;79;98958;-84
2022/06/11 01:57:29;;;;;;;5.12;2.80;;;;;;;14.58;90.52;101084.18;3634394;79;98767;-84
2022/06/11 02:02:51;;;;;;;6.33;3.37;;;;;;;14.58;90.52;101084.18;3658216;79;26528;-84
2022/06/11 02:08:21;;;;;;;6.45;3.35;;;;;;;14.67;90.69;101110.92;3631489;79;98987;-84
2022/06/11 02:13:52;;;;;;;8.70;4.17;;;;;;;14.60;90.72;101110.89;3641814;79;99123;-84
2022/06/11 02:18:55;;;;;;;6.42;3.60;;;;;;;14.55;91.04;101107.10;3652523;79;99010;-84
2022/06/11 02:24:09;;;;;;;8.40;4.08;;;;;;;14.46;91.25;101109.44;3643297;79;99208;-84
2022/06/11 02:29:14;;;;;;;8.33;4.12;;;;;;;14.39;91.37;101116.30;3642417;79;99009;-84
2022/06/11 02:34:19;;;;;;;7.53;3.52;;;;;;;14.34;91.56;101111.13;3634810;79;99142;-84
2022/06/11 02:39:21;;;;;;;6.70;3.80;;;;;;;14.19;91.98;101085.92;3657063;78;98808;-85
2022/06/11 02:44:23;;;;;;;10.15;4.28;;;;;;;14.28;92.05;101118.81;3693670;78;26278;-84
2022/06/11 02:49:29;;;;;;;7.75;4.58;;;;;;;14.21;92.00;101119.55;3686896;78;99201;-84
2022/06/11 02:54:30;;;;;;;8.15;4.08;;;;;;;14.20;92.70;101118.54;3673377;78;98660;-84
2022/06/11 02:59:31;;;;;;;8.67;4.60;;;;;;;14.16;92.81;101127.37;3616999;79;98931;-84
2022/06/11 03:04:33;;;;;;;10.13;4.10;;;;;;;14.11;93.04;101126.37;3605795;80;98863;-84
2022/06/11 03:09:37;;;;;;;10.10;4.28;;;;;;;14.11;93.04;101126.37;3576534;81;99411;-84
2022/06/11 03:14:41;;;;;;;7.08;3.70;;;;;;;14.10;93.30;101131.67;3588585;81;26540;-84
2022/06/11 03:19:42;;;;;;;9.33;4.33;;;;;;;14.08;93.52;101140.38;3595630;81;98949;-83
2022/06/11 03:24:44;;;;;;;8.80;4.20;;;;;;;14.08;93.87;101143.73;3603826;81;98553;-85
2022/06/11 03:29:46;;;;;;;10.07;4.70;;;;;;;14.08;93.91;101147.88;3555407;81;98905;-84
2022/06/11 03:34:47;;;;;;;8.98;4.87;;;;;;;14.06;93.94;101146.88;3591203;81;98941;-85
2022/06/11 03:39:48;;;;;;;10.03;4.95;;;;;;;14.08;94.25;101145.92;3576194;81;98848;-84
2022/06/11 03:44:49;;;;;;;11.40;4.80;;;;;;;14.08;94.31;101149.27;3603527;81;33256;-84
2022/06/11 03:49:51;;;;;;;11.50;5.70;;;;;;;14.09;94.13;101156.39;3595869;81;99117;-84
2022/06/11 03:54:54;;;;;;;11.33;5.30;;;;;;;14.09;94.22;101156.39;3614318;81;99109;-84
2022/06/11 03:59:55;;;;;;;11.22;4.90;;;;;;;14.11;94.08;101156.81;3598553;79;98997;-84
2022/06/11 04:04:56;;;;;;;11.47;6.17;;;;;;;14.12;94.56;101162.55;3641019;79;99430;-84
2022/06/11 04:09:57;;;;;;;7.97;4.70;;;;;;;14.11;93.83;101158.98;3635020;79;99266;-83
2022/06/11 04:14:58;;;;;;;12.87;4.67;;;;;;;14.11;93.40;101165.90;3645886;79;33237;-84
2022/06/11 04:20:00;;;;;;;8.07;4.37;;;;;;;14.11;90.99;101155.44;3641204;79;98706;-84
2022/06/11 04:25:01;;;;;;;9.50;4.30;;;;;;;14.11;90.99;101155.44;3641014;79;98684;-84
2022/06/11 04:30:03;;;;;;;11.90;4.00;;;;;;;14.15;90.27;101159.00;3638024;79;99172;-84
2022/06/11 04:35:05;;;;;;;10.20;4.22;;;;;;;14.18;89.72;101151.33;3654839;78;99345;-84
2022/06/11 04:40:08;;;;;;;8.15;4.08;;;;;;;14.28;88.99;101152.03;3657231;79;99390;-84
2022/06/11 04:45:10;;;;;;;7.78;3.62;;;;;;;14.37;88.14;101151.09;3654938;79;99333;-84
2022/06/11 04:50:16;;;;;;;8.50;3.70;;;;;;;14.51;87.86;101154.75;3663136;78;99143;-84
2022/06/11 04:55:17;;;;;;;8.70;4.23;;;;;;;14.67;86.94;101152.48;3648873;79;98674;-84
2022/06/11 05:00:24;;;;;;;6.87;3.27;;;;;;;14.86;86.37;101160.52;3685942;78;99343;-84
2022/06/11 05:05:26;;;;;;;7.80;3.70;;;;;;;15.08;85.90;101151.70;3660238;79;98726;-83
2022/06/11 05:10:30;;;;;;;7.40;3.83;;;;;;;15.34;85.28;101152.25;3606916;80;99174;-84
2022/06/11 05:15:33;;;;;;;9.33;2.80;;;;;;;15.72;84.91;101151.55;3647816;80;99240;-85
2022/06/11 05:20:34;;;;;;;5.80;2.53;;;;;;;16.27;85.24;101154.16;3647287;80;98408;-84
2022/06/11 05:25:38;;;;;;;7.83;2.63;;;;;;;16.96;83.93;101156.62;3650990;79;99019;-85
2022/06/11 05:30:41;;;;;;;6.55;2.25;;;;;;;17.75;81.60;101157.25;3652294;79;99006;-86
2022/06/11 05:35:43;;;;;;;6.20;2.12;;;;;;;18.60;80.47;101160.97;3658066;80;99133;-85
2022/06/11 05:40:48;;;;;;;5.63;2.50;;;;;;;19.49;78.35;101163.13;3689255;78;99167;-84
2022/06/11 05:46:00;;;;;;;7.70;2.17;;;;;;;20.34;75.96;101165.45;3709043;78;98819;-85
2022/06/11 05:51:01;;;;;;;4.33;2.20;;;;;;;21.22;73.71;101156.99;3689665;78;98741;-84
2022/06/11 05:56:03;;;;;;;5.65;2.40;;;;;;;22.06;71.04;101161.33;3708963;78;25967;-85
2022/06/11 06:01:05;;;;;;;6.95;2.30;;;;;;;22.50;67.17;101164.22;3702696;78;98630;-87
2022/06/11 06:06:06;;;;;;;3.17;1.92;;;;;;;22.87;64.62;101165.02;3687756;78;99298;-85
2022/06/11 06:11:07;;;;;;;4.37;1.98;;;;;;;23.26;63.90;101170.36;3700659;78;99126;-87
2022/06/11 06:16:08;;;;;;;5.23;1.80;;;;;;;23.86;62.82;101176.98;3709305;78;98890;-87
2022/06/11 06:21:10;;;;;;;6.37;2.15;;;;;;;24.40;61.72;101179.82;3696858;78;99102;-87
2022/06/11 06:26:11;;;;;;;4.30;2.00;;;;;;;24.89;59.28;101180.14;3702473;78;26331;-86
2022/06/11 06:31:15;;;;;;;4.45;2.00;;;;;;;25.20;57.31;101178.20;3707694;78;98729;-87
2022/06/11 06:36:16;;;;;;;4.10;2.08;;;;;;;25.36;56.71;101161.12;3705468;78;98840;-88
2022/06/11 06:41:18;;;;;;;5.25;1.90;;;;;;;25.85;54.93;101175.51;3692576;78;99189;-85
2022/06/11 06:46:19;;;;;;;3.60;1.60;;;;;;;25.92;53.22;101175.24;3699063;78;99294;-87
2022/06/11 06:51:21;;;;;;;5.12;1.70;;;;;;;26.33;52.45;101170.50;3689671;78;99323;-87
2022/06/11 06:56:25;;;;;;;3.33;1.90;;;;;;;26.42;51.49;101174.00;3687771;78;26248;-87
2022/06/11 07:01:26;;;;;;;3.65;1.67;;;;;;;26.80;50.56;101170.16;3703322;78;98837;-87
2022/06/11 07:06:27;;;;;;;3.72;1.60;;;;;;;27.06;48.72;101172.19;3711092;78;98753;-87
2022/06/11 07:11:28;;;;;;;6.37;1.85;;;;;;;27.23;48.01;101172.66;3698297;78;98769;-88
2022/06/11 07:16:34;;;;;;;6.30;1.60;;;;;;;27.54;48.34;101171.20;3705741;78;99027;-87
2022/06/11 07:21:40;;;;;;;20.95;2.58;;;;;;;28.01;46.24;101172.77;3719986;78;99277;-87
2022/06/11 07:26:46;;;;;;;6.35;2.08;;;;;;;28.08;45.46;101168.81;3691980;78;98888;-88
2022/06/11 07:31:50;;;;;;;4.70;1.25;;;;;;;28.06;44.10;101181.25;3707314;78;99064;-87
2022/06/11 07:36:51;;;;;;;4.55;1.52;;;;;;;28.26;44.48;101175.16;3699889;78;98949;-89
2022/06/11 07:41:52;;;;;;;4.62;2.00;;;;;;;28.38;42.18;101173.41;3680816;78;99013;-89
2022/06/11 07:46:53;;;;;;;4.55;1.60;;;;;;;28.22;41.92;101171.72;3697668;78;99127;-87
2022/06/11 07:51:54;;;;;;;5.30;1.98;;;;;;;27.99;43.03;101169.64;3714565;78;99115;-86
2022/06/11 07:56:55;;;;;;;4.53;2.10;;;;;;;27.98;42.35;101168.08;3697287;78;98794;-87
2022/06/11 08:01:56;;;;;;;4.83;2.05;;;;;;;27.98;43.38;101170.11;3702270;78;98579;-87
2022/06/11 08:06:57;;;;;;;5.85;2.60;;;;;;;28.04;43.10;101168.99;3694207;78;99395;-86
2022/06/11 08:11:58;;;;;;;6.50;2.25;;;;;;;28.35;44.02;101164.41;3692619;78;99197;-87
2022/06/11 08:17:00;;;;;;;6.15;2.20;;;;;;;28.31;44.09;101162.39;3693864;78;99230;-86
2022/06/11 08:22:01;;;;;;;2.85;1.47;;;;;;;28.54;43.41;101158.18;3696816;78;98866;-85
2022/06/11 08:27:02;;;;;;;4.28;2.20;;;;;;;28.88;43.28;101156.17;3693362;78;98790;-84
2022/06/11 08:32:05;;;;;;;4.78;2.33;;;;;;;29.29;41.35;101152.98;3595216;81;25787;-85
2022/06/11 08:37:08;;;;;;;4.37;1.70;;;;;;;29.28;40.80;101157.90;3584125;81;99025;-86
2022/06/11 08:42:37;;;;;;;6.05;1.90;;;;;;;29.62;40.93;101151.55;3633188;80;98928;-87
2022/06/11 08:47:43;;;;;;;6.22;1.72;;;;;;;30.29;39.73;101148.48;3632136;79;99262;-85
2022/06/11 08:52:46;;;;;;;5.95;1.25;;;;;;;30.65;38.12;101144.31;3635692;80;99323;-86
2022/06/11 08:58:23;;;;;;;5.12;1.60;;;;;;;30.80;38.31;101142.20;3639587;80;99195;-87
2022/06/11 09:03:42;;;;;;;3.90;1.42;;;;;;;31.10;36.25;101147.20;3647354;79;99209;-87
2022/06/11 09:09:21;;;;;;;4.12;1.30;;;;;;;31.76;35.68;101147.86;3640027;80;98430;-87
2022/06/11 09:15:03;;;;;;;4.45;1.50;;;;;;;32.40;35.43;101145.20;3647653;80;25907;-87
2022/06/11 09:20:18;;;;;;;5.65;1.77;;;;;;;32.82;35.80;101137.23;3625916;79;98674;-87
2022/06/11 09:25:48;;;;;;;4.37;1.80;;;;;;;32.74;34.25;101139.77;3639313;79;99168;-87
2022/06/11 09:31:03;;;;;;;6.33;2.00;;;;;;;33.14;34.90;101134.34;3628332;79;98619;-87
2022/06/11 09:36:08;;;;;;;4.08;1.80;;;;;;;33.33;33.37;101121.16;3614448;79;98807;-86
2022/06/11 09:41:32;;;;;;;4.72;1.67;;;;;;;33.55;33.37;101120.53;3636119;79;98849;-86
2022/06/11 09:46:59;;;;;;;5.08;1.98;;;;;;;33.70;32.49;101113.12;3636792;79;99098;-87
2022/06/11 09:52:20;;;;;;;6.15;1.77;;;;;;;34.15;32.91;101108.90;3641559;79;98793;-88
2022/06/11 09:57:47;;;;;;;6.10;1.70;;;;;;;33.88;29.95;101104.81;3637534;79;98696;-87
2022/06/11 10:08:25;;;;;;;5.60;1.90;;;;;;;33.82;31.34;101100.41;3638321;79;98888;-87
2022/06/11 10:20:00;;;;;;;3.92;1.85;;;;;;;34.20;29.76;101101.75;3630974;79;98705;-87
2022/06/11 10:25:21;;;;;;;7.55;2.15;;;;;;;34.24;30.51;101100.05;3694913;78;99438;-87
2022/06/11 10:30:55;;;;;;;5.37;1.67;;;;;;;34.45;29.63;101102.09;3679201;78;98958;-88
2022/06/11 10:36:04;;;;;;;6.50;1.73;;;;;;;33.91;30.17;101099.50;3681624;78;99200;-84
2022/06/11 10:41:10;;;;;;;5.00;1.95;;;;;;;33.15;29.95;101109.59;3677844;78;99262;-85
2022/06/11 10:46:11;;;;;;;6.75;2.00;;;;;;;32.58;31.28;101099.81;3666361;78;98844;-84
2022/06/11 10:51:26;;;;;;;6.37;2.08;;;;;;;32.58;29.50;101099.81;3681720;78;98755;-86
2022/06/11 10:56:39;;;;;;;4.45;1.77;;;;;;;32.26;31.09;101089.17;3683414;78;99155;-86
2022/06/11 11:01:48;;;;;;;4.95;1.70;;;;;;;32.17;31.22;101082.88;3669128;78;98603;-86
2022/06/11 11:12:58;;;;;;;4.37;1.60;;;;;;;33.10;31.46;101076.12;3617715;79;99276;-85
2022/06/11 11:18:04;;;;;;;6.55;1.55;;;;;;;32.73;29.36;101078.34;3625302;79;99305;-87
2022/06/11 11:29:29;;;;;;;9.13;1.70;;;;;;;33.45;30.21;101064.98;3618903;79;99011;-85
2022/06/11 11:34:34;;;;;;;5.17;1.47;;;;;;;33.08;30.40;101068.70;3665708;79;99193;-85
2022/06/11 11:39:35;;;;;;;7.25;2.00;;;;;;;33.29;31.73;101057.87;3665165;79;98514;-85
2022/06/11 11:44:41;;;;;;;5.25;1.98;;;;;;;32.90;30.84;101054.19;3653195;79;98663;-86
2022/06/11 11:49:48;;;;;;;5.87;1.52;;;;;;;33.04;30.55;101049.66;3665372;78;98378;-86
2022/06/11 11:55:11;;;;;;;5.10;1.90;;;;;;;33.18;30.79;101045.00;3678747;79;99053;-84
2022/06/11 12:00:40;;;;;;;5.85;1.80;;;;;;;33.20;28.48;101045.25;3657547;79;99133;-84
2022/06/11 12:05:54;;;;;;;3.75;1.37;;;;;;;32.86;29.02;101041.58;3672275;78;99317;-85
2022/06/11 12:11:00;;;;;;;;;;;;;;;32.75;30.43;101041.53;3676275;78;99728;-85
2022/06/11 12:16:06;;;;;;;8.75;1.90;;;;;;;32.63;30.67;101028.55;3682047;78;84866;-85
2022/06/11 12:21:13;;;;;;;6.83;1.70;;;;;;;32.64;31.49;101027.25;3657926;78;98730;-86
2022/06/11 12:26:27;;;;;;;3.65;1.60;;;;;;;33.21;31.89;101021.91;3678125;78;99125;-86
2022/06/11 12:31:34;;;;;;;4.03;1.67;;;;;;;33.48;29.45;101025.42;3677466;78;98945;-87
2022/06/11 12:37:03;;;;;;;5.10;1.90;;;;;;;33.28;28.42;101027.78;3674628;78;100708;-84
2022/06/11 12:42:34;;;;;;;4.33;1.77;;;;;;;32.79;28.30;101024.98;3677287;78;98985;-87
2022/06/11 12:47:46;;;;;;;4.97;1.60;;;;;;;32.47;30.51;101027.86;3669682;78;98866;-86
2022/06/11 12:53:09;;;;;;;6.78;2.30;;;;;;;32.44;31.56;101026.06;3664685;78;98929;-85
2022/06/11 12:58:25;;;;;;;3.77;1.87;;;;;;;32.50;31.16;101026.84;3673470;78;98689;-85
2022/06/11 13:03:37;;;;;;;4.03;1.95;;;;;;;32.50;31.16;101026.84;3688665;78;26286;-85
2022/06/11 13:09:08;;;;;;;4.62;2.30;;;;;;;32.12;30.50;101019.55;3686467;78;98956;-86
2022/06/11 13:14:45;;;;;;;4.37;1.57;;;;;;;31.69;31.51;101020.20;3684023;78;98934;-86
2022/06/11 13:20:00;;;;;;;4.83;1.87;;;;;;;31.15;32.28;101022.75;3680371;78;98851;-85
2022/06/11 13:25:25;;;;;;;6.70;1.80;;;;;;;30.87;31.99;101012.41;3668289;78;99334;-85
2022/06/11 13:31:01;;;;;;;3.93;1.77;;;;;;;30.76;31.67;101014.52;3699600;78;99188;-85
2022/06/11 13:36:39;;;;;;;3.90;1.82;;;;;;;30.83;32.10;101013.30;3689773;78;98819;-85
2022/06/11 13:41:58;;;;;;;8.88;1.82;;;;;;;30.59;32.18;101010.70;3695391;78;98831;-85
2022/06/11 13:47:33;;;;;;;4.30;1.92;;;;;;;30.46;31.48;101006.67;3659357;78;98982;-87
2022/06/11 13:58:04;;;;;;;6.03;1.75;;;;;;;30.42;31.82;101002.64;3692432;78;85139;-87
2022/06/11 14:03:33;;;;;;;4.72;1.60;;;;;;;30.35;32.24;100994.53;3678606;78;26188;-84
2022/06/11 14:09:04;;;;;;;4.05;1.72;;;;;;;30.47;32.59;100995.45;3674357;78;99018;-84
2022/06/11 14:14:36;;;;;;;4.33;1.90;;;;;;;30.62;32.62;100989.78;3687830;78;98597;-85
2022/06/11 14:19:39;;;;;;;5.37;2.33;;;;;;;30.65;31.97;100990.84;3666623;78;98727;-85
2022/06/11 14:24:49;;;;;;;5.55;2.80;;;;;;;30.40;32.38;100985.30;3694037;78;98874;-86
2022/06/11 14:30:13;;;;;;;6.67;2.25;;;;;;;30.36;32.57;100988.22;3687844;78;98805;-85
2022/06/11 14:35:21;;;;;;;6.47;2.22;;;;;;;30.22;32.93;100982.78;3674539;78;98797;-85
2022/06/11 14:40:35;;;;;;;7.05;2.30;;;;;;;30.22;33.54;100976.30;3683144;78;99128;-84
2022/06/11 14:45:44;;;;;;;15.83;2.47;;;;;;;29.93;33.18;100970.14;3691893;78;26139;-85
2022/06/11 14:51:09;;;;;;;5.20;1.90;;;;;;;29.81;33.35;100969.06;3676234;78;99164;-85
2022/06/11 14:56:42;;;;;;;5.37;2.10;;;;;;;29.74;33.40;100969.50;3688202;78;98974;-85
2022/06/11 15:02:17;;;;;;;6.80;2.45;;;;;;;29.72;33.14;100967.16;3683871;78;98620;-85
2022/06/11 15:07:35;;;;;;;6.92;2.10;;;;;;;29.72;34.61;100967.16;3666112;78;98986;-86
2022/06/11 15:13:02;;;;;;;4.62;2.10;;;;;;;29.80;34.42;100970.35;3684100;78;98815;-85
2022/06/11 15:18:41;;;;;;;6.15;2.75;;;;;;;29.73;34.57;100972.96;3657976;78;98847;-84
2022/06/11 15:23:47;;;;;;;4.92;2.00;;;;;;;29.56;34.21;100965.48;3666651;78;99279;-85
2022/06/11 15:29:04;;;;;;;5.33;2.08;;;;;;;29.30;34.83;100963.92;3668521;78;98897;-84
2022/06/11 15:34:06;;;;;;;10.25;2.33;;;;;;;29.16;34.43;100958.30;3645503;79;99137;-85
2022/06/11 15:39:11;;;;;;;4.10;1.60;;;;;;;29.03;35.82;100957.19;3638416;79;99139;-86
2022/06/11 15:44:18;;;;;;;3.00;1.75;;;;;;;29.02;35.15;100957.67;3558656;81;99313;-86
2022/06/11 15:49:36;;;;;;;6.95;2.00;;;;;;;28.92;36.17;100958.39;3638304;79;98966;-85
2022/06/11 16:00:10;;;;;;;2.90;1.62;;;;;;;28.65;35.41;100953.03;3524531;82;98593;-85
2022/06/11 16:05:31;;;;;;;3.98;1.98;;;;;;;28.56;36.22;100945.27;3647726;78;99299;-85
2022/06/11 16:10:35;;;;;;;5.35;1.77;;;;;;;28.47;36.79;100943.31;3682572;78;99209;-86
2022/06/11 16:15:36;;;;;;;3.37;1.70;;;;;;;28.49;37.82;100942.18;3682459;78;26170;-86
2022/06/11 16:20:38;;;;;;;5.20;1.90;;;;;;;28.56;38.03;100944.61;3659029;78;98604;-85
2022/06/11 16:25:44;;;;;;;5.35;2.10;;;;;;;28.55;38.47;100940.23;3698002;78;98895;-86
2022/06/11 16:30:47;;;;;;;3.58;1.85;;;;;;;28.58;38.03;100942.09;3680709;78;98552;-86
2022/06/11 16:35:53;;;;;;;3.47;1.62;;;;;;;28.52;37.60;100940.42;3713247;78;98926;-86
2022/06/11 16:41:17;;;;;;;4.17;2.05;;;;;;;28.43;37.79;100941.92;3686287;79;99292;-86
2022/06/11 16:46:25;;;;;;;5.77;1.90;;;;;;;28.43;38.71;100944.75;3694343;78;99000;-86
2022/06/11 16:56:48;;;;;;;5.78;2.08;;;;;;;28.23;37.92;100932.64;3677347;78;99225;-86
2022/06/11 17:03:05;;;;;;;5.93;2.10;;;;;;;28.11;37.38;100935.77;3692977;78;97922;-86
2022/06/11 17:07:13;;;;;;;4.90;1.60;;;;;;;27.85;38.13;100934.72;3701262;78;98836;-86
2022/06/11 17:12:20;;;;;;;;;;;;;;;27.79;39.05;100938.83;3705372;78;98888;-86
2022/06/11 17:17:26;;;;;;;3.02;1.50;;;;;;;27.76;38.65;100939.78;3685526;78;84681;-86
2022/06/11 17:22:31;;;;;;;3.72;1.70;;;;;;;27.69;38.97;100930.88;3681603;78;98893;-86
2022/06/11 17:27:34;;;;;;;;;;;;;;;27.59;39.63;100927.34;3664583;78;98816;-86
2022/06/11 17:32:35;;;;;;;6.55;2.22;;;;;;;27.50;40.93;100919.52;3671936;78;85249;-86
2022/06/11 17:37:40;;;;;;;4.87;2.42;;;;;;;27.44;39.67;100918.00;3672990;78;98921;-86
2022/06/11 17:42:41;;;;;;;5.85;2.30;;;;;;;27.32;39.38;100923.27;3662183;78;98749;-85
2022/06/11 17:47:42;;;;;;;2.95;1.60;;;;;;;27.24;39.80;100926.92;3666915;78;98869;-85
2022/06/11 17:52:51;;;;;;;4.53;1.87;;;;;;;27.17;40.78;100923.02;3686946;78;99322;-85
2022/06/11 17:57:51;;;;;;;3.52;1.80;;;;;;;27.09;41.27;100926.02;3678450;78;98955;-85
2022/06/11 18:03:15;;;;;;;5.30;2.05;;;;;;;26.96;41.38;100924.02;3673090;78;98826;-86
2022/06/11 18:08:17;;;;;;;3.83;2.05;;;;;;;26.84;41.60;100928.63;3522526;80;99070;-85
2022/06/11 18:13:19;;;;;;;4.08;1.87;;;;;;;26.73;41.93;100926.94;3608578;80;99072;-86
2022/06/11 18:18:41;;;;;;;3.05;1.75;;;;;;;26.65;41.88;100915.80;3597823;80;98760;-86
2022/06/11 18:29:02;;;;;;;5.15;1.92;;;;;;;26.45;41.85;100922.59;3578780;80;98778;-86
2022/06/11 18:34:03;;;;;;;5.95;2.98;;;;;;;26.36;42.09;100921.80;3541205;82;98762;-86
2022/06/11 18:39:07;;;;;;;6.20;2.40;;;;;;;26.27;42.66;100919.78;3578717;81;98872;-86
2022/06/11 18:44:09;;;;;;;5.50;2.52;;;;;;;26.16;43.26;100920.89;3590527;81;99238;-86
2022/06/11 18:49:15;;;;;;;5.67;2.12;;;;;;;26.02;43.75;100922.95;3586245;81;99431;-86
2022/06/11 18:54:15;;;;;;;10.68;3.72;;;;;;;25.87;44.28;100935.28;3577003;80;99219;-86
2022/06/11 18:59:16;;;;;;;8.60;4.12;;;;;;;25.74;45.09;100931.22;3534279;82;99060;-86
2022/06/11 19:04:18;;;;;;;7.42;3.92;;;;;;;25.57;45.80;100928.54;3588177;80;99161;-85
2022/06/11 19:09:19;;;;;;;8.78;3.80;;;;;;;25.36;46.58;100940.70;3651216;78;98842;-85
2022/06/11 19:14:20;;;;;;;11.75;4.08;;;;;;;25.13;47.40;100946.06;3685473;78;98685;-86
2022/06/11 19:19:24;;;;;;;8.10;4.10;;;;;;;24.89;48.68;100947.20;3626233;79;99164;-85
2022/06/11 19:24:26;;;;;;;8.20;4.10;;;;;;;24.65;49.78;100948.97;3688380;78;99175;-85
2022/06/11 19:29:28;;;;;;;9.05;4.20;;;;;;;24.37;51.51;100953.44;3682597;78;99166;-86
2022/06/11 19:34:30;;;;;;;6.42;3.42;;;;;;;24.09;52.59;100955.87;3672985;78;99099;-85
2022/06/11 19:39:39;;;;;;;8.70;3.63;;;;;;;23.85;53.49;100961.70;3706140;78;98676;-85
2022/06/11 19:44:51;;;;;;;8.63;4.28;;;;;;;23.58;55.04;100969.26;3690189;78;98613;-85
2022/06/11 19:49:54;;;;;;;7.33;3.83;;;;;;;23.33;56.23;100966.47;3668667;78;99215;-87
2022/06/11 19:54:55;;;;;;;9.00;4.58;;;;;;;23.08;57.70;100965.06;3691436;78;99406;-87
2022/06/11 19:59:56;;;;;;;10.27;4.30;;;;;;;22.86;58.87;100974.58;3676787;78;99324;-85
2022/06/11 20:04:57;;;;;;;11.08;4.92;;;;;;;22.63;60.03;100969.27;3695310;78;99018;-86
2022/06/11 20:09:59;;;;;;;9.58;5.00;;;;;;;22.41;61.05;100967.69;3702084;78;99081;-86
2022/06/11 20:15:03;;;;;;;10.70;5.15;;;;;;;22.17;62.18;100964.18;3702871;78;26098;-86
2022/06/11 20:20:08;;;;;;;14.40;6.80;;;;;;;22.02;63.14;100970.00;3697618;78;98910;-85
2022/06/11 20:25:10;;;;;;;15.40;5.95;;;;;;;21.83;63.88;100969.48;3682298;78;99578;-84
2022/06/11 20:30:13;;;;;;;14.07;5.33;;;;;;;21.64;64.85;100972.55;3701381;78;99299;-85
2022/06/11 20:35:14;;;;;;;10.18;5.40;;;;;;;21.49;65.32;100971.34;3705099;78;99090;-85
2022/06/11 20:40:16;;;;;;;10.40;6.15;;;;;;;21.36;66.32;100973.88;3688346;78;99054;-85
2022/06/11 20:45:22;;;;;;;10.35;5.30;;;;;;;21.20;67.33;100966.87;3680031;78;26353;-86
2022/06/11 20:50:22;;;;;;;;;;;;;;;21.01;68.09;100969.90;3677571;78;99165;-86
2022/06/11 20:55:24;;;;;;;10.57;5.03;;;;;;;20.86;70.95;100970.60;3698657;78;84537;-86
2022/06/11 21:00:25;;;;;;;9.80;5.20;;;;;;;20.71;69.25;100967.96;3693534;78;99425;-87
2022/06/11 21:05:27;;;;;;;8.73;5.30;;;;;;;20.54;69.85;100967.11;3683364;79;98894;-87
2022/06/11 21:10:29;;;;;;;14.20;6.00;;;;;;;20.45;70.56;100971.70;3661588;79;99578;-87
2022/06/11 21:15:30;;;;;;;10.82;5.92;;;;;;;20.34;71.31;100970.53;3593929;81;26449;-86
2022/06/11 21:20:36;;;;;;;8.07;5.47;;;;;;;20.26;72.01;100973.88;3632943;80;99326;-87
2022/06/11 21:25:40;;;;;;;8.98;5.12;;;;;;;20.14;72.50;100968.33;3652082;79;99056;-85
2022/06/11 21:30:44;;;;;;;11.70;6.30;;;;;;;20.03;73.12;100979.48;3660953;79;99379;-85
2022/06/11 21:35:45;;;;;;;9.40;5.70;;;;;;;19.98;73.58;100984.17;3644085;79;99408;-85
2022/06/11 21:46:05;;;;;;;12.23;5.75;;;;;;;19.78;74.56;100979.17;3559298;81;99390;-86
2022/06/11 21:51:07;;;;;;;12.93;5.90;;;;;;;19.70;74.70;100970.72;3669239;79;98994;-86
2022/06/11 21:56:08;;;;;;;12.30;6.25;;;;;;;19.62;75.11;100969.27;3688653;79;99141;-87
2022/06/11 22:01:20;;;;;;;14.07;6.77;;;;;;;19.55;75.50;100963.78;3667453;79;99400;-86
2022/06/11 22:06:24;;;;;;;15.72;6.80;;;;;;;19.48;76.09;100961.92;3654277;79;99379;-87
2022/06/11 22:11:29;;;;;;;13.35;7.50;;;;;;;19.39;76.41;100962.26;3678107;78;99334;-87
2022/06/11 22:16:34;;;;;;;13.73;7.73;;;;;;;19.31;76.49;100972.77;3690710;78;99313;-86
2022/06/11 22:21:40;;;;;;;14.13;8.98;;;;;;;19.25;77.09;100970.28;3687871;78;26278;-87
2022/06/11 22:26:42;;;;;;;14.80;9.75;;;;;;;19.18;77.38;100969.57;3694332;78;108076;-87
2022/06/11 22:31:43;;;;;;;15.88;8.55;;;;;;;19.12;77.79;100967.84;3689370;78;99424;-87
2022/06/11 22:36:46;;;;;;;19.33;8.77;;;;;;;19.09;78.04;100967.31;3674574;78;99493;-87
2022/06/11 22:41:49;;;;;;;14.75;8.83;;;;;;;19.04;78.01;100969.17;3701348;78;98965;-87
2022/06/11 22:46:50;;;;;;;13.80;8.63;;;;;;;19.03;78.66;100964.02;3673861;78;99436;-87
2022/06/11 22:51:51;;;;;;;14.27;8.40;;;;;;;19.00;79.00;100964.24;3687670;78;25777;-87
2022/06/11 22:56:53;;;;;;;18.37;8.85;;;;;;;18.97;79.36;100955.93;3690187;78;99033;-87
2022/06/11 23:01:54;;;;;;;14.87;8.33;;;;;;;18.95;79.40;100970.88;3680252;78;99249;-87
2022/06/11 23:07:00;;;;;;;14.03;8.17;;;;;;;18.93;79.48;100966.34;3639629;79;99526;-87
2022/06/11 23:12:00;;;;;;;15.90;9.15;;;;;;;18.91;79.75;100968.15;3669580;79;99365;-87
2022/06/11 23:17:03;;;;;;;15.32;8.83;;;;;;;18.88;79.93;100966.22;3639344;79;98581;-87
2022/06/11 23:22:05;;;;;;;13.65;7.87;;;;;;;18.88;80.19;100969.60;3678049;79;99381;-86
2022/06/11 23:27:06;;;;;;;13.55;8.13;;;;;;;18.87;79.93;100976.39;3660595;80;99320;-86
2022/06/11 23:32:08;;;;;;;12.70;8.13;;;;;;;18.89;80.21;100965.59;3667902;79;99196;-87
2022/06/11 23:37:10;;;;;;;13.88;7.83;;;;;;;18.90;80.43;100967.97;3660646;79;99484;-87
2022/06/11 23:42:11;;;;;;;14.93;8.67;;;;;;;18.92;80.39;100973.14;3669573;79;99449;-87
2022/06/11 23:47:12;;;;;;;15.63;7.90;;;;;;;18.93;80.60;100968.55;3661407;79;99458;-87
2022/06/11 23:52:14;;;;;;;12.30;7.83;;;;;;;18.95;80.62;100970.88;3656544;79;99482;-87
2022/06/11 23:57:15;;;;;;;11.13;8.00;;;;;;;18.97;80.68;100975.46;3668589;79;98792;-86
